Terminal Aerodrome Forecast
Issued by NWS

Home | Current Version | Previous Version | Text Only | Print | Product List | Glossary Off
Versions: 1 2 3 4 5 6 7 8 9 10 11 12 13 14 15 16 17 18 19 20 21 22 23 24

000
FTUS42 KMHX 140500 RRA
TAFPGV
TAF
KPGV 140543Z 1406/1506 18006KT P6SM FEW030 SCT250
     FM141400 19014G23KT P6SM SCT035 BKN200
     FM150100 18012KT P6SM VCSH SCT015
      AMD LTD TO CLD VIS AND WIND=

USA.gov is the U.S. government's official web portal to all federal, state and local government web resources and services.